Skip to Main Content

If you see just a black screen when trying to view Live Traffic cameras, please click inside the window to get video to play. An update to certain browsers is not allowing the video to auto-play when the window opens. 

SEARCH:
Location Air RH Dwp Precip Type Wind Speed Wind Gust Direction Pavement Temperature Date/Time
Hatem Bridge US 40 E/B 79 78 72 None 9 mph 11 mph SE 100 - 100 7/16/2018 10:41:00 AM
I-270 at I-370 82 70 72 None Calm Calm N 102 - 98 7/16/2018 10:40:00 AM
I-270 at MD-109 87 63 73 None Calm 6 mph W 105 - 105 7/16/2018 10:40:00 AM
I-495 at American Legion Bridge 84 75 76 None Calm 10 mph N 103 - 104 7/16/2018 10:40:00 AM
I-68 at Savage Mt 79 72 69 None 4 mph 9 mph SE 100 - 102 7/16/2018 10:40:00 AM
I-68 at Sideling Hill 80 80 73 None Calm 4 mph S 102 - 106 7/16/2018 10:40:00 AM
I-68 at US 219 77 76 69 None Calm 7 mph W 101 - 98 7/16/2018 10:40:00 AM
I-68 at WV Line 80 68 69 None Calm Calm S 92 - 97 7/16/2018 10:40:00 AM
I-695 at I-83 87 62 72 None Calm 8 mph SW 102 - 106 7/16/2018 10:40:00 AM
I-695 on FSK Bridge 80 77 72 None Calm 4 mph W 101 - 101 7/16/2018 10:44:00 AM
I-70 at Fred-Wash Co. 82 71 72 None Calm 6 mph NW 104 - 106 7/16/2018 10:40:00 AM
I-70 at I-695 86 67 73 None Calm 7 mph S 105 - 83 7/16/2018 10:40:00 AM
I-70 at I-81 85 64 72 None Calm 7 mph S - 7/16/2018 10:40:00 AM
I-70 at MD-27 84 67 72 None Calm Calm N 104 - 107 7/16/2018 10:40:00 AM
I-70 at MD-32 83 65 70 None Calm 6 mph NW 104 - 106 7/16/2018 10:40:00 AM
I-83 at MD-137 86 67 74 None Calm 6 mph S 105 - 105 7/16/2018 10:40:00 AM
I-95 at I-695 NE 85 63 71 None 4 mph 6 mph S 104 - 113 7/16/2018 10:44:00 AM
I-95 at Patuxent River 86 70 75 None 5 mph 9 mph NE 101 - 104 7/16/2018 10:40:00 AM
I-95 at Tydings Bridge 84 69 73 None Calm 5 mph E 102 - 104 7/16/2018 10:40:00 AM
I-95/495 at I-295 91 62 76 None Calm Calm SW 104 - 88 7/16/2018 10:40:00 AM
I-97 at MD-100 90 56 72 None Calm 9 mph SW 105 - 110 7/16/2018 10:40:00 AM
I-97 at MD-32 85 65 72 None Calm 4 mph N 107 - 97 7/16/2018 10:40:00 AM
IS 70 W of I-270 - - - No Data Available - - No Data Available 109 - 109 7/16/2018 10:40:00 AM
MD 136 @ MD 646 83 68 71 No Data Available Calm 4 mph W 111 - 111 7/16/2018 10:40:00 AM
MD 20 at MD 21 83 72 74 None Calm Calm N 113 - 113 7/16/2018 10:40:00 AM
MD 23 at Meadowtree Road 83 64 70 No Data Available Calm Calm SE 112 - 112 7/16/2018 10:40:00 AM
MD 231 at Patuxent River 83 74 74 None 6 mph 7 mph S 109 - 109 7/16/2018 10:40:00 AM
MD 24 at Jarrettsville Road 84 64 71 No Data Available Calm 6 mph SW 111 - 111 7/16/2018 10:40:00 AM
MD 260 at Cox Rd 86 69 74 None Calm 4 mph N 112 - 112 7/16/2018 10:40:00 AM
MD-135 at Salt Dome 78 73 69 None Calm 5 mph E 102 - 102 7/16/2018 10:40:00 AM
MD-140 at MD-97 84 65 71 None Calm 5 mph NE 103 - 110 7/16/2018 10:40:00 AM
MD-200 EB at Bonifant Rd - - - No Data Available - - No Data Available -
MD-200 WB at Muncaster Mill Rd 83 66 71 None Calm 8 mph W 103 - 111 7/16/2018 10:41:00 AM
MD-213 at Sassafras River 86 76 78 None Calm 5 mph W 108 - 108 7/16/2018 10:40:00 AM
MD-24 at Rock St Park 80 94 78 None Calm Calm N 102 - 102 7/16/2018 10:40:00 AM
MD-30 at PA Line 82 74 73 None Calm 5 mph W 105 - 105 7/16/2018 10:40:00 AM
MD-33 at Knapps Narrows Drawbridge 85 67 73 None Calm 7 mph N 115 - 115 7/16/2018 10:40:00 AM
MD-344 at MD-224 81 80 74 None Calm 5 mph W 89 - 89 7/16/2018 10:40:00 AM
MD-4 at Patuxent River 83 76 75 None 6 mph 7 mph SE 100 - 97 7/16/2018 10:44:00 AM
MD-404 at Choptank River 87 61 72 None 4 mph 9 mph W 109 - 109 7/16/2018 10:40:00 AM
MD-43 at MD-150 86 68 74 None 4 mph 7 mph W 105 - 108 7/16/2018 10:40:00 AM
MD-51 at Oldtown Salt Dome 78 80 71 None Calm 8 mph SW 103 - 103 7/16/2018 10:40:00 AM
MD-64 at MD-418 82 70 71 None 5 mph 8 mph W 111 - 114 7/16/2018 10:40:00 AM
US 301 at MD 305 86 67 74 None Calm 5 mph SW 109 - 116 7/16/2018 10:40:00 AM
US-1 at Baltimore / Harford Co. Line 85 68 73 None Calm 7 mph SE 100 - 100 7/16/2018 10:40:00 AM
US-1 at Conowingo Dam 83 81 77 None Calm Calm SW 81 - 81 7/16/2018 10:40:00 AM
US-13 at US-113 81 74 72 None Calm 6 mph SW 97 - 98 7/16/2018 10:40:00 AM
US-13 at US-50 84 65 71 None 4 mph 7 mph SW 102 - 102 7/16/2018 10:40:00 AM
US-15 at MD-140 85 64 72 None Calm 5 mph S 103 - 107 7/16/2018 10:40:00 AM
US-301 at MD-5 86 69 75 None Calm 5 mph SE 104 - 109 7/16/2018 10:40:00 AM
US-301 at Potomac 86 73 76 None 5 mph 7 mph S 104 - 98 7/16/2018 10:44:00 AM
US-340 at MD-180 85 63 71 None Calm 5 mph N 105 - 108 7/16/2018 10:40:00 AM
US-50 at Choptank 87 70 76 None Calm 6 mph SE 103 - 105 7/16/2018 10:40:00 AM
US-50 at I-95 88 63 74 None Calm 6 mph N 105 - 105 7/16/2018 10:40:00 AM
US-50 at MD-2 85 79 77 None Calm 7 mph SE 103 - 104 7/16/2018 10:40:00 AM
US-50 at MD-331 83 72 74 None 4 mph 8 mph SW 96 - 99 7/16/2018 10:40:00 AM
US-50 at OC Drawbridge 84 71 74 None Calm 11 mph E 106 - 106 7/16/2018 10:40:00 AM
US-50 at Table Rock Rd 75 79 68 None Calm 5 mph W 102 - 102 7/16/2018 10:40:00 AM
US-50 Kent Narrow Bridge 85 72 75 None Calm 7 mph SE 102 - 104 7/16/2018 10:40:00 AM
WPL Pier 31 78 85 73 None 4 mph 9 mph SE 103 - 103 7/16/2018 10:41:00 AM
Location Air RH Dwp Precip Type Wind Speed Wind Gust Direction Pavement Temperature Date/Time